createdAt,value
2018-01-13T00:01:46.250Z,53.57
2018-01-13T00:04:15.402Z,56.00
2018-01-13T00:06:43.814Z,62.00
2018-01-13T00:09:12.347Z,53.80
2018-01-13T00:11:40.746Z,56.30
2018-01-13T00:14:09.491Z,56.83
2018-01-13T00:16:38.088Z,56.93
2018-01-13T00:19:06.583Z,57.33
2018-01-13T00:21:35.200Z,53.93
2018-01-13T00:24:03.713Z,57.33
2018-01-13T00:26:33.054Z,54.80
2018-01-13T00:29:01.583Z,55.93
2018-01-13T00:31:30.850Z,49.70
2018-01-13T00:34:00.272Z,51.27
2018-01-13T00:36:28.755Z,49.97
2018-01-13T00:38:57.137Z,51.87
2018-01-13T00:41:25.727Z,48.37
2018-01-13T00:43:54.339Z,49.60
2018-01-13T00:46:22.709Z,51.70
2018-01-13T00:48:51.068Z,47.40
2018-01-13T00:51:20.270Z,50.43
2018-01-13T00:53:49.498Z,48.07
2018-01-13T00:56:18.040Z,46.73
2018-01-13T00:58:47.196Z,45.33
2018-01-13T01:01:15.818Z,45.30
2018-01-13T01:03:44.970Z,45.30
2018-01-13T01:06:13.428Z,45.40
2018-01-13T01:08:41.974Z,47.07
2018-01-13T01:11:11.130Z,43.57
2018-01-13T01:13:39.644Z,45.70
2018-01-13T01:16:08.823Z,44.00
2018-01-13T01:18:37.364Z,44.20
2018-01-13T01:21:05.791Z,42.80
2018-01-13T01:23:34.297Z,40.63
2018-01-13T01:26:03.442Z,45.77
2018-01-13T01:28:31.842Z,41.60
2018-01-13T01:31:00.349Z,44.13
2018-01-13T01:33:29.040Z,44.20
2018-01-13T01:35:58.215Z,42.50
2018-01-13T01:38:26.771Z,41.00
2018-01-13T01:40:55.401Z,40.23
2018-01-13T01:43:23.950Z,43.23
2018-01-13T01:45:52.334Z,38.87
2018-01-13T01:48:26.153Z,42.00
2018-01-13T01:50:54.656Z,39.23
2018-01-13T01:53:23.816Z,43.33
2018-01-13T01:55:52.334Z,39.53
2018-01-13T01:58:21.639Z,40.47
2018-01-13T02:00:49.692Z,40.50
2018-01-13T02:03:18.873Z,40.33
2018-01-13T02:05:48.749Z,39.77
2018-01-13T02:08:17.152Z,41.80
2018-01-13T02:10:45.551Z,36.67
2018-01-13T02:13:14.748Z,37.37
2018-01-13T02:15:44.479Z,39.53
2018-01-13T02:18:13.632Z,40.20
2018-01-13T02:20:42.008Z,40.07
2018-01-13T02:23:10.383Z,38.37
2018-01-13T02:25:38.835Z,39.40
2018-01-13T02:28:07.566Z,39.40
2018-01-13T02:30:35.974Z,36.67
2018-01-13T02:33:04.331Z,35.63
2018-01-13T02:35:33.491Z,37.20
2018-01-13T02:38:01.962Z,37.17
2018-01-13T02:40:30.317Z,34.90
2018-01-13T02:42:58.783Z,35.97
2018-01-13T02:45:28.160Z,38.37
2018-01-13T02:47:56.519Z,37.40
2018-01-13T02:50:24.936Z,36.47
2018-01-13T02:52:53.359Z,33.27
2018-01-13T02:55:21.800Z,39.33
2018-01-13T02:57:50.954Z,35.07
2018-01-13T03:00:19.336Z,34.67
2018-01-13T03:02:48.564Z,33.30
2018-01-13T03:05:18.163Z,35.37
2018-01-13T03:07:46.692Z,37.00
2018-01-13T03:10:15.347Z,37.80
2018-01-13T03:12:43.772Z,34.63
2018-01-13T03:15:12.239Z,35.50
2018-01-13T03:17:40.724Z,36.07
2018-01-13T03:20:08.901Z,36.50
2018-01-13T03:22:37.456Z,36.10
2018-01-13T03:25:06.016Z,33.77
2018-01-13T03:27:35.354Z,34.53
2018-01-13T03:30:03.732Z,32.37
2018-01-13T03:32:32.107Z,29.43
2018-01-13T03:35:00.472Z,30.03
2018-01-13T03:37:28.874Z,29.10
2018-01-13T03:39:57.254Z,29.13
2018-01-13T03:42:25.647Z,27.20
2018-01-13T03:44:54.232Z,29.43
2018-01-13T03:47:22.610Z,29.80
2018-01-13T03:49:51.012Z,29.97
2018-01-13T03:52:19.375Z,27.23
2018-01-13T03:54:47.869Z,28.20
2018-01-13T03:57:16.340Z,29.07
2018-01-13T03:59:44.744Z,29.53
2018-01-13T04:02:14.268Z,27.00
2018-01-13T04:04:42.602Z,25.60
2018-01-13T04:07:10.989Z,28.17
2018-01-13T04:09:40.150Z,26.90
2018-01-13T04:12:08.526Z,26.80
2018-01-13T04:14:37.727Z,27.97
2018-01-13T04:17:06.139Z,26.97
2018-01-13T04:19:35.436Z,27.53
2018-01-13T04:22:04.575Z,26.67
2018-01-13T04:24:33.216Z,27.90
2018-01-13T04:27:02.373Z,25.97
2018-01-13T04:29:30.907Z,25.77
2018-01-13T04:32:00.395Z,25.07
2018-01-13T04:34:28.829Z,25.27
2018-01-13T04:36:57.204Z,26.67
2018-01-13T04:39:25.684Z,25.77
2018-01-13T04:41:54.303Z,25.40
2018-01-13T04:44:22.948Z,27.93
2018-01-13T04:46:51.324Z,24.17
2018-01-13T04:49:20.008Z,27.60
2018-01-13T04:51:48.568Z,24.73
2018-01-13T04:54:17.209Z,24.00
2018-01-13T04:56:45.780Z,26.10
2018-01-13T04:59:14.514Z,25.80
2018-01-13T05:01:43.626Z,25.47
2018-01-13T05:04:12.182Z,27.27
2018-01-13T05:06:41.367Z,23.73
2018-01-13T05:09:09.840Z,25.60
2018-01-13T05:11:38.802Z,25.70
2018-01-13T05:14:07.566Z,23.33
2018-01-13T05:16:36.616Z,24.60
2018-01-13T05:19:05.294Z,24.33
2018-01-13T05:21:33.879Z,25.27
2018-01-13T05:24:02.531Z,24.17
2018-01-13T05:26:30.931Z,26.30
2018-01-13T05:28:59.355Z,24.90
2018-01-13T05:31:28.509Z,25.10
2018-01-13T05:33:57.194Z,25.03
2018-01-13T05:36:25.736Z,24.63
2018-01-13T05:38:54.306Z,24.63
2018-01-13T05:41:22.701Z,25.27
2018-01-13T05:43:51.164Z,24.30
2018-01-13T05:46:19.673Z,24.00
2018-01-13T05:48:48.084Z,23.87
2018-01-13T05:51:16.590Z,23.70
2018-01-13T05:53:45.332Z,24.30
2018-01-13T05:56:14.331Z,22.73
2018-01-13T05:58:42.559Z,24.00
2018-01-13T06:01:10.928Z,25.43
2018-01-13T06:03:40.480Z,25.03
2018-01-13T06:06:09.013Z,21.90
2018-01-13T06:08:38.175Z,24.83
2018-01-13T06:11:06.750Z,23.43
2018-01-13T06:13:35.271Z,24.57
2018-01-13T06:16:03.839Z,24.30
2018-01-13T06:18:33.034Z,22.07
2018-01-13T06:21:01.649Z,24.27
2018-01-13T06:23:30.048Z,22.80
2018-01-13T06:25:58.459Z,23.87
2018-01-13T06:28:26.904Z,22.73
2018-01-13T06:30:55.331Z,22.87
2018-01-13T06:33:23.890Z,21.57
2018-01-13T06:35:52.349Z,22.67
2018-01-13T06:38:20.730Z,21.43
2018-01-13T06:40:49.105Z,21.70
2018-01-13T06:43:17.487Z,22.07
2018-01-13T06:45:46.059Z,21.53
2018-01-13T06:48:14.412Z,21.50
2018-01-13T06:50:42.827Z,22.67
2018-01-13T06:53:11.330Z,22.57
2018-01-13T06:55:39.687Z,20.83
2018-01-13T06:58:08.048Z,22.50
2018-01-13T07:00:36.614Z,20.90
2018-01-13T07:03:04.987Z,21.13
2018-01-13T07:05:33.490Z,19.50
2018-01-13T07:08:02.039Z,20.27
2018-01-13T07:10:31.298Z,20.73
2018-01-13T07:12:59.655Z,20.40
2018-01-13T07:15:28.248Z,20.97
2018-01-13T07:17:57.535Z,19.47
2018-01-13T07:20:26.198Z,19.17
2018-01-13T07:22:54.705Z,20.57
2018-01-13T07:25:23.067Z,19.27
2018-01-13T07:27:51.442Z,19.10
2018-01-13T07:30:19.993Z,21.00
2018-01-13T07:32:49.137Z,19.70
2018-01-13T07:35:17.501Z,20.87
2018-01-13T07:37:46.096Z,19.30
2018-01-13T07:40:14.568Z,20.93
2018-01-13T07:42:43.156Z,20.80
2018-01-13T07:45:11.578Z,20.83
2018-01-13T07:47:39.979Z,21.17
2018-01-13T07:50:09.168Z,20.70
2018-01-13T07:52:38.463Z,19.50
2018-01-13T07:55:07.636Z,20.70
2018-01-13T07:57:36.019Z,19.60
2018-01-13T08:00:04.460Z,20.90
2018-01-13T08:02:32.950Z,20.10
2018-01-13T08:05:01.331Z,19.07
2018-01-13T08:07:29.515Z,19.63
2018-01-13T08:09:58.193Z,20.13
2018-01-13T08:12:26.657Z,19.80
2018-01-13T08:14:55.206Z,19.97
2018-01-13T08:17:24.400Z,19.70
2018-01-13T08:19:53.559Z,19.17
2018-01-13T08:22:22.093Z,19.17
2018-01-13T08:24:50.487Z,20.20
2018-01-13T08:27:18.991Z,19.33
2018-01-13T08:29:47.553Z,19.37
2018-01-13T08:32:15.924Z,18.33
2018-01-13T08:34:44.341Z,19.23
2018-01-13T08:37:12.809Z,19.93
2018-01-13T08:39:41.322Z,20.43
2018-01-13T08:42:10.024Z,19.53
2018-01-13T08:44:39.223Z,19.77
2018-01-13T08:47:08.375Z,19.20
2018-01-13T08:49:36.780Z,19.80
2018-01-13T08:52:05.172Z,18.40
2018-01-13T08:54:34.367Z,17.90
2018-01-13T08:57:03.428Z,18.90
2018-01-13T08:59:31.585Z,19.20
2018-01-13T09:02:01.613Z,17.83
2018-01-13T09:04:29.811Z,18.00
2018-01-13T09:06:58.981Z,18.40
2018-01-13T09:09:27.442Z,17.73
2018-01-13T09:11:55.800Z,17.20
2018-01-13T09:14:24.301Z,18.07
2018-01-13T09:16:52.820Z,17.47
2018-01-13T09:19:21.194Z,16.47
2018-01-13T09:21:49.573Z,17.47
2018-01-13T09:24:17.939Z,17.10
2018-01-13T09:26:46.355Z,17.67
2018-01-13T09:29:15.481Z,16.50
2018-01-13T09:31:43.947Z,17.50
2018-01-13T09:34:12.325Z,16.90
2018-01-13T09:36:40.671Z,17.80
2018-01-13T09:39:10.553Z,18.47
2018-01-13T09:41:38.966Z,19.10
2018-01-13T09:44:07.303Z,16.97
2018-01-13T09:46:35.671Z,16.70
2018-01-13T09:49:03.698Z,18.33
2018-01-13T09:51:32.865Z,17.60
2018-01-13T09:54:01.214Z,18.33
2018-01-13T09:56:29.579Z,17.97
2018-01-13T09:58:57.922Z,18.93
2018-01-13T10:01:26.299Z,18.00
2018-01-13T10:03:54.657Z,18.80
2018-01-13T10:06:23.033Z,16.70
2018-01-13T10:08:51.395Z,17.60
2018-01-13T10:11:19.766Z,16.90
2018-01-13T10:13:48.308Z,16.17
2018-01-13T10:16:16.910Z,16.03
2018-01-13T10:18:45.553Z,15.67
2018-01-13T10:21:13.902Z,15.60
2018-01-13T10:23:42.272Z,15.50
2018-01-13T10:26:10.815Z,15.13
2018-01-13T10:28:39.189Z,15.27
2018-01-13T10:31:08.382Z,13.90
2018-01-13T10:33:37.521Z,14.07
2018-01-13T10:36:05.940Z,14.73
2018-01-13T10:38:34.443Z,14.00
2018-01-13T10:41:03.635Z,12.80
2018-01-13T10:43:33.080Z,14.30
2018-01-13T10:46:01.643Z,14.27
2018-01-13T10:48:30.000Z,13.20
2018-01-13T10:50:59.128Z,13.77
2018-01-13T10:53:29.196Z,14.30
2018-01-13T10:55:57.572Z,15.10
2018-01-13T10:58:25.970Z,13.87
2018-01-13T11:00:55.266Z,14.70
2018-01-13T11:03:24.404Z,13.33
2018-01-13T11:05:52.599Z,14.20
2018-01-13T11:08:21.046Z,13.70
2018-01-13T11:10:49.394Z,12.60
2018-01-13T11:13:18.650Z,12.70
2018-01-13T11:15:47.021Z,12.07
2018-01-13T11:18:15.360Z,12.63
2018-01-13T11:20:43.774Z,11.70
2018-01-13T11:23:12.294Z,12.33
2018-01-13T11:25:41.439Z,12.60
2018-01-13T11:28:09.854Z,13.00
2018-01-13T11:30:38.565Z,13.30
2018-01-13T11:33:07.713Z,12.50
2018-01-13T11:35:36.315Z,12.80
2018-01-13T11:38:04.759Z,11.07
2018-01-13T11:40:33.304Z,12.53
2018-01-13T11:43:02.800Z,11.93
2018-01-13T11:45:31.968Z,10.83
2018-01-13T11:48:00.355Z,11.83
2018-01-13T11:50:28.727Z,11.33
2018-01-13T11:52:57.159Z,11.87
2018-01-13T11:55:25.564Z,11.10
2018-01-13T11:57:58.866Z,11.80
2018-01-13T12:00:27.240Z,11.23
2018-01-13T12:02:55.831Z,11.53
2018-01-13T12:05:24.199Z,10.90
2018-01-13T12:07:53.434Z,12.23
2018-01-13T12:10:22.619Z,10.97
2018-01-13T12:12:51.094Z,10.00
2018-01-13T12:15:19.690Z,9.83
2018-01-13T12:17:48.064Z,9.80
2018-01-13T12:20:16.467Z,10.90
2018-01-13T12:22:45.617Z,10.67
2018-01-13T12:25:14.047Z,10.63
2018-01-13T12:27:42.647Z,11.00
2018-01-13T12:30:11.157Z,10.27
2018-01-13T12:32:40.286Z,10.70
2018-01-13T12:35:09.850Z,10.77
2018-01-13T12:37:39.424Z,10.00
2018-01-13T12:40:08.830Z,10.80
2018-01-13T12:42:38.609Z,10.80
2018-01-13T12:45:07.546Z,10.33
2018-01-13T12:47:35.937Z,10.33
2018-01-13T12:50:04.335Z,10.40
2018-01-13T12:52:32.970Z,10.20
2018-01-13T12:55:01.485Z,10.37
2018-01-13T12:57:30.017Z,10.00
2018-01-13T12:59:59.171Z,10.37
2018-01-13T13:02:27.542Z,11.10
2018-01-13T13:04:56.029Z,10.97
2018-01-13T13:07:24.546Z,11.30
2018-01-13T13:09:53.684Z,10.63
2018-01-13T13:12:22.123Z,10.60
2018-01-13T13:14:51.341Z,10.93
2018-01-13T13:17:20.468Z,11.00
2018-01-13T13:19:49.231Z,11.63
2018-01-13T13:22:17.616Z,11.30
2018-01-13T13:24:46.004Z,11.47
2018-01-13T13:27:14.394Z,10.70
2018-01-13T13:29:42.766Z,10.77
2018-01-13T13:32:11.147Z,11.93
2018-01-13T13:34:39.922Z,11.43
2018-01-13T13:37:08.321Z,11.37
2018-01-13T13:39:36.696Z,11.23
2018-01-13T13:42:05.101Z,11.27
2018-01-13T13:44:33.627Z,10.73
2018-01-13T13:47:02.010Z,11.00
2018-01-13T13:49:30.385Z,9.77
2018-01-13T13:51:58.919Z,10.63
2018-01-13T13:54:27.270Z,10.37
2018-01-13T13:56:55.786Z,10.80
2018-01-13T13:59:25.089Z,11.17
2018-01-13T14:01:53.464Z,10.83
2018-01-13T14:04:23.427Z,10.90
2018-01-13T14:06:51.762Z,11.17
2018-01-13T14:09:20.926Z,11.50
2018-01-13T14:11:49.282Z,11.00
2018-01-13T14:14:17.668Z,10.60
2018-01-13T14:16:46.032Z,12.33
2018-01-13T14:19:14.491Z,11.10
2018-01-13T14:21:43.630Z,10.90
2018-01-13T14:24:12.034Z,10.30
2018-01-13T14:26:40.432Z,11.13
2018-01-13T14:29:09.578Z,11.60
2018-01-13T14:31:38.036Z,10.77
2018-01-13T14:34:06.468Z,11.30
2018-01-13T14:36:34.829Z,11.07
2018-01-13T14:39:03.178Z,10.67
2018-01-13T14:41:33.122Z,9.97
2018-01-13T14:44:01.486Z,10.10
2018-01-13T14:46:30.001Z,9.70
2018-01-13T14:48:59.282Z,10.20
2018-01-13T14:51:27.667Z,11.20
2018-01-13T14:53:56.249Z,10.70
2018-01-13T14:56:24.716Z,10.97
2018-01-13T14:58:53.156Z,10.60
2018-01-13T15:01:21.658Z,11.70
2018-01-13T15:03:50.000Z,10.87
2018-01-13T15:06:19.309Z,11.60
2018-01-13T15:08:48.427Z,10.67
2018-01-13T15:11:16.472Z,11.63
2018-01-13T15:13:44.975Z,10.73
2018-01-13T15:16:13.379Z,10.70
2018-01-13T15:18:41.737Z,11.53
2018-01-13T15:21:10.192Z,11.27
2018-01-13T15:23:38.550Z,11.10
2018-01-13T15:26:07.683Z,11.27
2018-01-13T15:28:36.140Z,11.47
2018-01-13T15:31:05.276Z,10.50
2018-01-13T15:33:33.672Z,11.70
2018-01-13T15:36:06.954Z,11.00
2018-01-13T15:38:35.335Z,12.60
2018-01-13T15:41:03.698Z,10.87
2018-01-13T15:43:32.062Z,11.10
2018-01-13T15:46:00.417Z,12.30
2018-01-13T15:48:28.793Z,12.20
2018-01-13T15:50:57.163Z,12.30
2018-01-13T15:53:26.291Z,11.07
2018-01-13T15:55:54.637Z,11.40
2018-01-13T15:58:23.877Z,12.10
2018-01-13T16:00:52.255Z,11.83
2018-01-13T16:03:20.629Z,11.60
2018-01-13T16:05:49.217Z,12.40
2018-01-13T16:08:17.566Z,11.73
2018-01-13T16:10:45.959Z,12.37
2018-01-13T16:13:14.320Z,12.33
2018-01-13T16:15:42.849Z,11.83
2018-01-13T16:18:10.880Z,12.03
2018-01-13T16:20:39.229Z,11.53
2018-01-13T16:23:08.563Z,11.23
2018-01-13T16:25:37.088Z,12.70
2018-01-13T16:28:05.534Z,13.10
2018-01-13T16:30:34.225Z,13.40
2018-01-13T16:33:02.839Z,13.70
2018-01-13T16:35:31.282Z,17.20
2018-01-13T16:37:59.655Z,15.33
2018-01-13T16:40:28.237Z,12.53
2018-01-13T16:42:56.807Z,13.50
2018-01-13T16:45:24.842Z,14.13
2018-01-13T16:47:53.987Z,13.37
2018-01-13T16:50:22.519Z,12.73
2018-01-13T16:52:51.673Z,13.33
2018-01-13T16:55:20.019Z,14.17
2018-01-13T16:57:49.462Z,13.07
2018-01-13T17:00:17.914Z,13.70
2018-01-13T17:02:46.274Z,13.40
2018-01-13T17:05:15.610Z,13.73
2018-01-13T17:07:43.994Z,13.93
2018-01-13T17:10:12.071Z,13.80
2018-01-13T17:12:40.634Z,14.00
2018-01-13T17:15:09.753Z,14.60
2018-01-13T17:17:38.132Z,14.17
2018-01-13T17:20:06.503Z,12.93
2018-01-13T17:22:35.063Z,14.60
2018-01-13T17:25:03.570Z,13.97
2018-01-13T17:27:31.929Z,13.30
2018-01-13T17:30:00.311Z,13.93
2018-01-13T17:32:28.683Z,14.00
2018-01-13T17:34:57.076Z,13.93
2018-01-13T17:37:25.440Z,14.57
2018-01-13T17:39:53.814Z,15.17
2018-01-13T17:42:22.183Z,14.87
2018-01-13T17:44:50.725Z,14.00
2018-01-13T17:47:19.111Z,14.93
2018-01-13T17:49:48.564Z,14.33
2018-01-13T17:52:17.060Z,16.20
2018-01-13T17:54:45.568Z,15.40
2018-01-13T17:57:17.938Z,15.00
2018-01-13T17:59:46.378Z,14.47
2018-01-13T18:02:14.866Z,16.07
2018-01-13T18:04:43.445Z,16.47
2018-01-13T18:07:11.857Z,15.07
2018-01-13T18:09:41.750Z,14.20
2018-01-13T18:12:10.295Z,14.93
2018-01-13T18:14:38.688Z,15.60
2018-01-13T18:17:07.074Z,15.37
2018-01-13T18:19:35.842Z,15.73
2018-01-13T18:22:04.323Z,16.53
2018-01-13T18:24:33.012Z,15.57
2018-01-13T18:27:01.584Z,17.70
2018-01-13T18:29:29.971Z,15.33
2018-01-13T18:31:58.671Z,17.20
2018-01-13T18:34:27.192Z,16.20
2018-01-13T18:36:56.357Z,15.73
2018-01-13T18:39:25.071Z,16.50
2018-01-13T18:41:53.424Z,17.90
2018-01-13T18:44:21.806Z,17.53
2018-01-13T18:46:50.170Z,16.80
2018-01-13T18:49:18.363Z,17.63
2018-01-13T18:51:46.729Z,16.30
2018-01-13T18:54:15.954Z,18.10
2018-01-13T18:56:44.311Z,18.23
2018-01-13T18:59:12.755Z,17.43
2018-01-13T19:01:41.104Z,15.60
2018-01-13T19:04:10.222Z,16.80
2018-01-13T19:06:38.570Z,18.20
2018-01-13T19:09:07.713Z,17.07
2018-01-13T19:11:36.061Z,17.40
2018-01-13T19:14:04.427Z,16.80
2018-01-13T19:16:33.678Z,17.63
2018-01-13T19:19:02.066Z,16.67
2018-01-13T19:21:30.447Z,17.17
2018-01-13T19:23:58.887Z,17.50
2018-01-13T19:26:27.314Z,17.20
2018-01-13T19:28:55.804Z,17.30
2018-01-13T19:31:24.231Z,18.27
2018-01-13T19:33:52.592Z,17.00
2018-01-13T19:36:20.959Z,17.27
2018-01-13T19:38:50.111Z,17.50
2018-01-13T19:41:18.572Z,17.60
2018-01-13T19:43:47.025Z,16.80
2018-01-13T19:46:15.397Z,14.97
2018-01-13T19:48:43.747Z,16.27
2018-01-13T19:51:12.113Z,16.17
2018-01-13T19:53:40.492Z,16.60
2018-01-13T19:56:08.934Z,15.80
2018-01-13T19:58:37.456Z,15.97
2018-01-13T20:01:05.832Z,15.23
2018-01-13T20:03:34.218Z,16.57
2018-01-13T20:06:03.225Z,16.53
2018-01-13T20:08:32.340Z,15.80
2018-01-13T20:11:00.726Z,16.70
2018-01-13T20:13:29.102Z,15.77
2018-01-13T20:15:57.462Z,17.20
2018-01-13T20:18:26.619Z,16.77
2018-01-13T20:20:55.753Z,15.70
2018-01-13T20:23:25.168Z,16.77
2018-01-13T20:25:53.659Z,16.63
2018-01-13T20:28:23.766Z,16.00
2018-01-13T20:30:52.160Z,16.03
2018-01-13T20:33:20.796Z,17.60
2018-01-13T20:35:49.285Z,15.10
2018-01-13T20:38:18.420Z,15.70
2018-01-13T20:40:46.842Z,16.83
2018-01-13T20:43:15.337Z,15.80
2018-01-13T20:45:44.625Z,15.13
2018-01-13T20:48:13.193Z,15.23
2018-01-13T20:50:41.652Z,15.53
2018-01-13T20:53:10.027Z,17.97
2018-01-13T20:55:38.553Z,17.07
2018-01-13T20:58:07.030Z,15.77
2018-01-13T21:00:36.102Z,15.00
2018-01-13T21:03:04.816Z,16.93
2018-01-13T21:05:33.221Z,17.33
2018-01-13T21:08:01.655Z,15.90
2018-01-13T21:10:30.211Z,16.50
2018-01-13T21:12:58.795Z,16.53
2018-01-13T21:15:27.061Z,16.87
2018-01-13T21:17:55.481Z,14.97
2018-01-13T21:20:24.649Z,16.13
2018-01-13T21:22:53.045Z,14.20
2018-01-13T21:25:21.396Z,14.50
2018-01-13T21:27:49.789Z,14.43
2018-01-13T21:30:19.178Z,14.70
2018-01-13T21:32:47.608Z,14.47
2018-01-13T21:35:16.752Z,13.77
2018-01-13T21:37:45.239Z,15.53
2018-01-13T21:40:13.623Z,14.60
2018-01-13T21:42:42.051Z,13.83
2018-01-13T21:45:10.427Z,13.50
2018-01-13T21:47:38.889Z,13.73
2018-01-13T21:50:07.319Z,14.00
2018-01-13T21:52:36.170Z,14.47
2018-01-13T21:55:04.962Z,14.53
2018-01-13T21:57:34.225Z,15.17
2018-01-13T22:00:02.867Z,14.30
2018-01-13T22:02:31.563Z,14.20
2018-01-13T22:04:59.969Z,14.57
2018-01-13T22:07:28.396Z,15.03
2018-01-13T22:09:56.962Z,14.97
2018-01-13T22:12:25.923Z,14.77
2018-01-13T22:14:54.309Z,16.20
2018-01-13T22:17:22.857Z,14.20
2018-01-13T22:19:51.246Z,14.77
2018-01-13T22:22:19.611Z,15.60
2018-01-13T22:24:48.111Z,14.43
2018-01-13T22:27:16.510Z,14.80
2018-01-13T22:29:45.205Z,13.73
2018-01-13T22:32:13.840Z,14.33
2018-01-13T22:34:42.223Z,14.93
2018-01-13T22:37:10.615Z,14.70
2018-01-13T22:39:39.180Z,14.87
2018-01-13T22:42:07.561Z,14.80
2018-01-13T22:44:35.978Z,14.97
2018-01-13T22:47:04.380Z,14.97
2018-01-13T22:49:33.523Z,15.60
2018-01-13T22:52:01.905Z,15.83
2018-01-13T22:54:30.483Z,14.93
2018-01-13T22:56:59.789Z,16.40
2018-01-13T22:59:28.157Z,14.90
2018-01-13T23:01:56.514Z,15.50
2018-01-13T23:04:24.896Z,15.27
2018-01-13T23:06:53.578Z,14.80
2018-01-13T23:09:22.046Z,14.67
2018-01-13T23:11:51.171Z,14.67
2018-01-13T23:14:19.571Z,14.23
2018-01-13T23:16:47.938Z,13.53
2018-01-13T23:19:16.437Z,14.53
2018-01-13T23:21:44.993Z,14.80
2018-01-13T23:24:13.366Z,13.70
2018-01-13T23:26:41.723Z,13.50
2018-01-13T23:29:10.250Z,14.47
2018-01-13T23:31:38.860Z,14.37
2018-01-13T23:34:08.011Z,13.27
2018-01-13T23:36:36.431Z,13.00
2018-01-13T23:39:04.911Z,13.37
2018-01-13T23:41:33.412Z,14.63
2018-01-13T23:44:02.589Z,13.57
2018-01-13T23:46:31.059Z,13.63
2018-01-13T23:48:59.573Z,13.40
2018-01-13T23:51:28.875Z,13.93
2018-01-13T23:53:57.486Z,13.50
2018-01-13T23:56:25.841Z,14.17
2018-01-13T23:58:55.116Z,14.90
